Flight Track Log - Related Links

Times and Time Zones

All times are in EDT time to prevent confusion due to time zone crossing. See the AAL2179 flight status page for this flight to view local times or setup timezone preferences in your user account.

Time Position Orientation Groundspeed Altitude Reporting Facility
EDT Latitude Longitude Course Direction KTS MPH feet Rate Location/Type
Mon 08:17:39 PM 25.7947 -80.2467 117° Southeast 177 204 1,400  Level Miami Center
Mon 08:18:40 PM 25.7667 -80.1858 117° Southeast 235 270 2,800 1,603 Climbing Miami Center
Mon 08:19:35 PM 25.7128 -80.1753 170° South 273 314 4,500 1,932 Climbing Miami Center
Mon 08:20:38 PM 25.6472 -80.2033 201° Southwest 278 320 6,600 2,244 Climbing Miami Center
Mon 08:21:38 PM 25.5756 -80.2383 204° Southwest 283 326 9,100 2,150 Climbing Miami Center
Mon 08:22:38 PM 25.4972 -80.2753 203° Southwest 289 333 10,900 1,400 Climbing Miami Center
Mon 08:23:38 PM 25.4044 -80.3208 204° Southwest 327 376 11,900 1,600 Climbing Miami Center
Mon 08:24:38 PM 25.3394 -80.4156 233° Southwest 369 425 14,100 2,200 Climbing Miami Center
Mon 08:25:38 PM 25.2803 -80.5286 240° Southwest 391 450 16,300 2,100 Climbing Miami Center
Mon 08:26:38 PM 25.2250 -80.6442 242° Southwest 408 470 18,300 1,950 Climbing Miami Center
Mon 08:27:38 PM 25.1656 -80.7617 241° Southwest 428 493 20,200 1,800 Climbing Miami Center
Mon 08:28:38 PM 25.1039 -80.8858 241° Southwest 447 514 21,900 1,650 Climbing Miami Center
Mon 08:29:38 PM 25.0419 -81.0075 241° Southwest 454 522 23,500 1,400 Climbing Miami Center
Mon 08:30:38 PM 24.9800 -81.1339 242° Southwest 466 536 24,700 1,150 Climbing Miami Center
Mon 08:31:38 PM 24.9133 -81.2644 241° Southwest 478 550 25,800 1,450 Climbing Miami Center
Mon 08:32:38 PM 24.8489 -81.3947 241° Southwest 484 557 27,600 1,750 Climbing Miami Center
Mon 08:33:38 PM 24.7844 -81.5228 241° Southwest 484 557 29,300 1,550 Climbing Miami Center
Mon 08:34:38 PM 24.7261 -81.6464 243° Southwest 473 544 30,700 1,450 Climbing Miami Center
Mon 08:35:38 PM 24.6633 -81.7786 242° Southwest 473 544 32,200 1,450 Climbing Miami Center
Mon 08:36:38 PM 24.5906 -81.8969 236° Southwest 483 556 33,600 1,339 Climbing Miami Center
Mon 08:37:39 PM 24.5317 -82.0244 243° Southwest 471 542 34,900 1,200 Climbing Miami Center
Mon 08:38:38 PM 24.4669 -82.1450 239° Southwest 471 542 36,000 555 Climbing Miami Center
Mon 08:39:38 PM 24.4042 -82.2656 240° Southwest 466 536 36,000 -50 Level Miami Center
Mon 08:40:38 PM 24.3433 -82.3906 242° Southwest 466 536 35,900 -50 Descending Miami Center
Mon 08:41:38 PM 24.2781 -82.5128 240° Southwest 466 536 35,900 50 Level Miami Center
Mon 08:42:38 PM 24.2172 -82.6331 241° Southwest 466 536 36,000 50 Climbing Miami Center
Mon 08:43:38 PM 24.1561 -82.7531 241° Southwest 461 531 36,000 -50 Level Miami Center
Mon 08:44:38 PM 24.0950 -82.8728 241° Southwest 461 531 35,900  Descending Miami Center
Mon 08:45:38 PM 24.0294 -82.9947 240° Southwest 461 531 36,000 50 Climbing Miami Center
Mon 08:46:38 PM 23.9722 -83.1169 243° Southwest 461 531 36,000  Level Miami Center
Mon 08:49:00 PM 23.8509 -83.3799 243° Southwest  Level FlightAware Approximate
Mon 08:56:00 PM 23.4938 -84.1574 244° Southwest  Level FlightAware Approximate
Mon 08:57:00 PM 23.4437 -84.2688 244° Southwest  Level FlightAware Approximate
Mon 08:58:00 PM 23.3935 -84.3801 244° Southwest  Level FlightAware Approximate
Mon 08:59:00 PM 23.3432 -84.4913 244° Southwest  Level FlightAware Approximate
Mon 09:00:00 PM 23.2928 -84.6024 244° Southwest  Level FlightAware Approximate
Mon 09:01:00 PM 23.2424 -84.7134 244° Southwest  Level FlightAware Approximate
Mon 09:02:00 PM 23.1908 -84.8237 243° Southwest  Level FlightAware Approximate
Mon 09:03:00 PM 23.1388 -84.9338 243° Southwest  Level FlightAware Approximate
Mon 09:04:00 PM 23.0867 -85.0439 243° Southwest  Level FlightAware Approximate
Mon 09:05:00 PM 23.0346 -85.1538 243° Southwest  Level FlightAware Approximate
Mon 09:06:00 PM 22.9824 -85.2636 243° Southwest  Level FlightAware Approximate
Mon 09:07:00 PM 22.9300 -85.3733 242° Southwest  Level FlightAware Approximate
Mon 09:08:00 PM 22.8758 -85.4819 242° Southwest  Level FlightAware Approximate
Mon 09:09:00 PM 22.8230 -85.5913 245° Southwest  Level FlightAware Approximate
Mon 09:10:00 PM 22.7756 -85.7035 245° Southwest  Level FlightAware Approximate
Mon 09:11:00 PM 22.7282 -85.8157 245° Southwest  Level FlightAware Approximate
Mon 09:12:00 PM 22.6807 -85.9277 245° Southwest  Level FlightAware Approximate
Mon 09:13:00 PM 22.6308 -86.0385 242° Southwest  Level FlightAware Approximate
Mon 09:14:00 PM 22.5766 -86.1469 242° Southwest  Level FlightAware Approximate
Mon 09:15:00 PM 22.5224 -86.2552 242° Southwest  Level FlightAware Approximate
Mon 09:16:00 PM 22.4683 -86.3636 242° Southwest  Level FlightAware Approximate
Mon 09:17:00 PM 22.4141 -86.4718 242° Southwest  Level FlightAware Approximate
Mon 09:18:00 PM 22.3772 -86.5860 263° West  Level FlightAware Approximate
Mon 09:19:00 PM 22.3628 -86.7081 263° West  Level FlightAware Approximate
Mon 09:20:00 PM 22.3484 -86.8301 263° West  Level FlightAware Approximate
Mon 09:21:00 PM 22.3339 -86.9522 263° West  Level FlightAware Approximate
Mon 09:22:00 PM 22.3192 -87.0742 263° West  Level FlightAware Approximate
Mon 09:23:00 PM 22.3045 -87.1961 263° West  Level FlightAware Approximate
Mon 09:24:00 PM 22.2880 -87.3178 261° West  Level FlightAware Approximate
Mon 09:25:00 PM 22.2708 -87.4394 261° West  Level FlightAware Approximate
Mon 09:26:00 PM 22.2534 -87.5609 261° West  Level FlightAware Approximate
Mon 09:27:00 PM 22.2359 -87.6824 261° West  Level FlightAware Approximate
Mon 09:28:00 PM 22.2184 -87.8038 261° West  Level FlightAware Approximate
Mon 09:29:00 PM 22.2007 -87.9252 261° West  Level FlightAware Approximate
Mon 09:30:00 PM 22.1830 -88.0466 261° West  Level FlightAware Approximate
Mon 09:31:00 PM 22.1652 -88.1680 261° West  Level FlightAware Approximate
Mon 09:32:00 PM 22.1473 -88.2893 261° West  Level FlightAware Approximate
Mon 09:33:00 PM 22.1294 -88.4107 261° West  Level FlightAware Approximate
Mon 09:34:00 PM 22.1121 -88.5320 261° West  Level FlightAware Approximate
Mon 09:35:00 PM 22.0946 -88.6534 261° West  Level FlightAware Approximate
Mon 09:36:00 PM 22.0771 -88.7747 261° West  Level FlightAware Approximate
Mon 09:37:00 PM 22.0594 -88.8960 261° West  Level FlightAware Approximate
Mon 09:38:00 PM 22.0417 -89.0173 261° West  Level FlightAware Approximate
Mon 09:39:00 PM 22.0239 -89.1385 261° West  Level FlightAware Approximate
Mon 09:40:00 PM 22.0060 -89.2598 261° West  Level FlightAware Approximate
Mon 09:41:00 PM 21.9885 -89.3810 261° West  Level FlightAware Approximate
Mon 09:42:00 PM 21.9711 -89.5023 261° West  Level FlightAware Approximate
Mon 09:43:00 PM 21.9535 -89.6235 261° West  Level FlightAware Approximate
Mon 09:44:00 PM 21.9358 -89.7440 261° West  Level FlightAware Approximate
Mon 09:45:00 PM 21.9180 -89.8644 261° West  Level FlightAware Approximate
Mon 09:46:00 PM 21.9002 -89.9848 261° West  Level FlightAware Approximate
Mon 09:47:00 PM 21.8822 -90.1052 261° West  Level FlightAware Approximate
Mon 09:48:00 PM 21.8642 -90.2255 261° West  Level FlightAware Approximate
Mon 09:49:00 PM 21.8460 -90.3458 261° West  Level FlightAware Approximate
Mon 09:50:00 PM 21.8278 -90.4661 261° West  Level FlightAware Approximate
Mon 09:51:00 PM 21.8095 -90.5863 261° West  Level FlightAware Approximate
Mon 09:52:00 PM 21.7911 -90.7066 261° West  Level FlightAware Approximate
Mon 09:53:00 PM 21.7727 -90.8268 261° West  Level FlightAware Approximate
Mon 09:54:00 PM 21.7541 -90.9469 261° West  Level FlightAware Approximate
Mon 09:55:00 PM 21.7355 -91.0670 261° West  Level FlightAware Approximate
Mon 09:56:00 PM 21.7167 -91.1871 260° West  Level FlightAware Approximate
Mon 09:57:00 PM 21.6979 -91.3072 260° West  Level FlightAware Approximate
Mon 09:58:00 PM 21.6790 -91.4272 260° West  Level FlightAware Approximate
Mon 09:59:00 PM 21.6600 -91.5472 260° West  Level FlightAware Approximate
Mon 10:00:00 PM 21.6409 -91.6672 260° West  Level FlightAware Approximate
Mon 10:01:00 PM 21.6218 -91.7871 260° West  Level FlightAware Approximate
Mon 10:02:00 PM 21.6025 -91.9070 260° West  Level FlightAware Approximate
Mon 10:03:00 PM 21.5832 -92.0269 260° West  Level FlightAware Approximate
Mon 10:04:00 PM 21.5637 -92.1468 260° West  Level FlightAware Approximate
Mon 10:05:00 PM 21.5442 -92.2666 260° West  Level FlightAware Approximate
Mon 10:06:00 PM 21.5236 -92.3861 259° West  Level FlightAware Approximate
Mon 10:07:00 PM 21.5016 -92.5054 259° West  Level FlightAware Approximate
Mon 10:08:00 PM 21.4795 -92.6246 259° West  Level FlightAware Approximate
Mon 10:09:00 PM 21.4574 -92.7438 259° West  Level FlightAware Approximate
Mon 10:10:00 PM 21.4367 -92.8633 260° West  Level FlightAware Approximate
Mon 10:11:00 PM 21.4167 -92.9830 260° West  Level FlightAware Approximate
Mon 10:12:00 PM 21.3967 -93.1025 260° West  Level FlightAware Approximate
Mon 10:13:00 PM 21.3766 -93.2221 260° West  Level FlightAware Approximate
Mon 10:14:00 PM 21.3564 -93.3416 260° West  Level FlightAware Approximate
Mon 10:15:00 PM 21.3361 -93.4611 260° West  Level FlightAware Approximate
Mon 10:16:00 PM 21.3157 -93.5806 260° West  Level FlightAware Approximate
Mon 10:17:00 PM 21.2952 -93.7000 260° West  Level FlightAware Approximate
Mon 10:18:00 PM 21.2747 -93.8194 260° West  Level FlightAware Approximate
Mon 10:19:00 PM 21.2541 -93.9387 260° West  Level FlightAware Approximate
Mon 10:20:00 PM 21.2334 -94.0580 259° West  Level FlightAware Approximate
Mon 10:21:00 PM 21.2125 -94.1773 259° West  Level FlightAware Approximate
Mon 10:22:00 PM 21.1917 -94.2966 259° West  Level FlightAware Approximate
Mon 10:23:00 PM 21.1707 -94.4158 259° West  Level FlightAware Approximate
Mon 10:24:00 PM 21.1497 -94.5350 259° West  Level FlightAware Approximate
Mon 10:25:00 PM 21.1285 -94.6541 259° West  Level FlightAware Approximate
Mon 10:26:00 PM 21.1073 -94.7733 259° West  Level FlightAware Approximate
Mon 10:27:00 PM 21.0860 -94.8923 259° West  Level FlightAware Approximate
Mon 10:28:00 PM 21.0646 -95.0114 259° West  Level FlightAware Approximate
Mon 10:29:00 PM 21.0427 -95.1303 259° West  Level FlightAware Approximate
Mon 10:30:00 PM 21.0207 -95.2492 259° West  Level FlightAware Approximate
Mon 10:31:00 PM 20.9986 -95.3680 259° West  Level FlightAware Approximate
Mon 10:32:00 PM 20.9763 -95.4868 258° West  Level FlightAware Approximate
Mon 10:33:00 PM 20.9536 -95.6055 258° West  Level FlightAware Approximate
Mon 10:34:00 PM 20.9308 -95.7241 258° West  Level FlightAware Approximate
Mon 10:35:00 PM 20.9079 -95.8428 258° West  Level FlightAware Approximate
Mon 10:36:00 PM 20.8849 -95.9613 258° West  Level FlightAware Approximate
Mon 10:37:00 PM 20.8619 -96.0798 258° West  Level FlightAware Approximate
Mon 10:38:00 PM 20.8388 -96.1983 258° West  Level FlightAware Approximate
Mon 10:39:00 PM 20.8156 -96.3168 258° West  Level FlightAware Approximate
Mon 10:40:00 PM 20.7923 -96.4352 258° West  Level FlightAware Approximate
Mon 10:41:00 PM 20.7689 -96.5536 258° West  Level FlightAware Approximate
Mon 10:42:00 PM 20.7454 -96.6720 258° West  Level FlightAware Approximate
Mon 10:43:00 PM 20.7219 -96.7903 258° West  Level FlightAware Approximate
Mon 10:44:00 PM 20.7015 -96.9078 260° West  Level FlightAware Approximate
Mon 10:45:00 PM 20.6770 -97.0244 257° West  Level FlightAware Approximate
Mon 10:46:00 PM 20.6521 -97.1409 257° West  Level FlightAware Approximate
Mon 10:47:00 PM 20.6271 -97.2574 257° West  Level FlightAware Approximate
Mon 10:48:00 PM 20.6021 -97.3738 257° West  Level FlightAware Approximate
Mon 10:49:00 PM 20.5728 -97.4815 233° Southwest  Level FlightAware Approximate
Mon 10:50:00 PM 20.5049 -97.5764 233° Southwest  Level FlightAware Approximate
Mon 10:51:00 PM 20.4352 -97.6697 231° Southwest  Level FlightAware Approximate
Mon 10:52:00 PM 20.3664 -97.7637 233° Southwest  Level FlightAware Approximate
Mon 10:53:00 PM 20.2987 -97.8586 233° Southwest  Level FlightAware Approximate
Mon 10:54:00 PM 20.2309 -97.9534 232° Southwest  Level FlightAware Approximate
Mon 10:55:00 PM 20.1623 -98.0475 232° Southwest  Level FlightAware Approximate
Mon 10:56:00 PM 20.0937 -98.1415 232° Southwest  Level FlightAware Approximate
Mon 10:57:00 PM 20.0250 -98.2355 232° Southwest  Level FlightAware Approximate
Mon 10:58:00 PM 19.9563 -98.3293 232° Southwest  Level FlightAware Approximate
Mon 10:59:00 PM 19.8871 -98.4228 231° Southwest  Level FlightAware Approximate
Mon 11:00:00 PM 19.8174 -98.5157 231° Southwest  Level FlightAware Approximate
Mon 11:01:00 PM 19.7586 -98.6132 232° Southwest  Level FlightAware Approximate
Mon 11:02:00 PM 19.6902 -98.7072 232° Southwest  Level FlightAware Approximate
Mon 11:03:00 PM 19.6263 -98.7928 231° Southwest  Level FlightAware Approximate
Mon 11:04:00 PM 19.5637 -98.8795 235° Southwest  Level FlightAware Approximate
Mon 11:05:00 PM 19.4983 -98.9634 232° Southwest  Level FlightAware Approximate
Mon 11:06:00 PM 19.4323 -99.0471 230° Southwest  Level FlightAware Approximate
Mon 11:07:00 PM 19.4167 -99.0667 230° Southwest  Level FlightAware Approximate
Mon 11:08:00 PM 19.4363 -99.0721 230° Southwest  Level Estimated
Mon 11:09:00 PM 19.4363 -99.0721 230° Southwest  Level Estimated
Mon 11:10:00 PM 19.4363 -99.0721 230° Southwest  Level Estimated
Mon 11:11:00 PM 19.4363 -99.0721 230° Southwest  Level Estimated
Mon 11:12:00 PM 19.4363 -99.0721 230° Southwest  Level Estimated
Mon 11:13:00 PM 19.4363 -99.0721 230° Southwest  Level Estimated
Mon 11:14:00 PM 19.4363 -99.0721 230° Southwest  Level Estimated
Mon 11:15:00 PM 19.4363 -99.0721 230° Southwest  Level Estimated
Mon 11:16:00 PM 19.4363 -99.0721 230° Southwest  Level Estimated
Mon 11:17:00 PM 19.4363 -99.0721 230° Southwest  Level Estimated
Mon 11:18:00 PM 19.4363 -99.0721 230° Southwest  Level Estimated
Mon 11:19:00 PM 19.4363 -99.0721 230° Southwest  Level Estimated
Mon 11:20:00 PM 19.4363 -99.0721 230° Southwest  Level Estimated
Mon 11:21:00 PM 19.4363 -99.0721 230° Southwest  Level Estimated
Mon 11:22:00 PM 19.4363 -99.0721 230° Southwest  Level Estimated
Mon 11:23:00 PM 19.4363 -99.0721 230° Southwest  Level Estimated
Mon 11:24:00 PM 19.4363 -99.0721 230° Southwest  Level Estimated
Mon 11:25:00 PM 19.4363 -99.0721 230° Southwest  Level Estimated
Mon 11:26:00 PM 19.4363 -99.0721 230° Southwest  Level Estimated
Mon 11:27:00 PM 19.4363 -99.0721 230° Southwest  Level Estimated
Mon 11:28:00 PM 19.4363 -99.0721 230° Southwest  Level Estimated
Mon 11:29:00 PM 19.4363 -99.0721 230° Southwest  Level Estimated
Mon 11:30:00 PM 19.4363 -99.0721 230° Southwest  Level Estimated
Mon 11:31:00 PM 19.4363 -99.0721 230° Southwest  Level Estimated
Mon 11:32:00 PM 19.4363 -99.0721 230° Southwest  Level Estimated
Mon 11:33:00 PM 19.4363 -99.0721 230° Southwest  Level Estimated
Mon 11:34:00 PM 19.4363 -99.0721 230° Southwest  Level Estimated
Mon 11:35:00 PM 19.4363 -99.0721 230° Southwest  Level Estimated
Mon 11:36:00 PM 19.4363 -99.0721 230° Southwest  Level Estimated
Mon 11:37:00 PM 19.4363 -99.0721 230° Southwest  Level Estimated
Mon 11:38:00 PM 19.4363 -99.0721 230° Southwest  Level Estimated
Mon 11:39:00 PM 19.4363 -99.0721 230° Southwest  Level Estimated
Mon 11:40:00 PM 19.4363 -99.0721 230° Southwest  Level Estimated

Login

Don't have an account? Register now (free) for customized features, flight alerts, and more!